Time;durP1;ratioP1;P1;durP2;ratioP2;P2;SDS_P1;SDS_P2;PMS_P1;PMS_P2;Temp;Humidity;BMP_temperature;BMP_pressure;BME280_temperature;BME280_humidity;BME280_pressure;Samples;Min_cycle;Max_cycle;Signal;HPM_P1;HPM_P2
2024/04/03 00:01:15;;;;;;;18.10;5.93;;;10.20;94.70;;;15.81;47.56;98509.25;5072935;28;20044;-77
2024/04/03 00:03:44;;;;;;;17.27;5.55;;;10.30;95.20;;;15.80;47.62;98507.59;5073567;28;20401;-78
2024/04/03 00:06:12;;;;;;;21.15;5.97;;;10.20;94.80;;;15.81;47.22;98509.25;5074689;28;20040;-78
2024/04/03 00:08:38;;;;;;;16.70;5.00;;;10.20;95.10;;;15.79;47.27;98500.66;5073432;28;20105;-77
2024/04/03 00:11:06;;;;;;;18.90;5.45;;;10.20;95.30;;;15.78;47.48;98508.72;5074338;28;20131;-79
2024/04/03 00:13:32;;;;;;;13.43;3.40;;;10.20;94.90;;;15.77;47.27;98501.81;5074734;28;20044;-78
2024/04/03 00:16:00;;;;;;;16.65;4.53;;;10.20;95.30;;;15.74;47.50;98502.94;5074118;28;20857;-78
2024/04/03 00:18:27;;;;;;;12.70;3.90;;;10.20;95.50;;;15.75;47.62;98503.75;5074220;28;20479;-79
2024/04/03 00:21:04;;;;;;;12.27;3.25;;;10.20;95.90;;;15.69;47.57;98510.50;5088764;28;20072;-77
2024/04/03 00:23:31;;;;;;;9.05;2.88;;;10.30;96.30;;;15.77;47.78;98510.56;5067110;28;20079;-77
2024/04/03 00:26:01;;;;;;;15.43;3.30;;;10.30;96.00;;;15.81;47.57;98501.31;5073622;28;20071;-77
2024/04/03 00:28:29;;;;;;;9.63;2.70;;;10.30;95.80;;;15.84;47.62;98503.66;5074225;28;20052;-77
2024/04/03 00:31:02;;;;;;;14.57;2.92;;;10.30;95.70;;;15.84;47.83;98508.94;5092172;28;20099;-78
2024/04/03 00:33:28;;;;;;;11.98;3.20;;;10.30;95.70;;;15.88;47.95;98505.00;5084510;28;20123;-79
2024/04/03 00:35:57;;;;;;;11.63;3.33;;;10.30;95.40;;;15.89;48.07;98506.66;5074641;28;20059;-79
2024/04/03 00:38:26;;;;;;;8.07;2.47;;;10.30;96.60;;;15.95;47.78;98505.22;5074302;28;20084;-78
2024/04/03 00:40:55;;;;;;;13.82;3.55;;;10.40;97.10;;;15.90;47.85;98503.06;5074434;28;20060;-77
2024/04/03 00:43:22;;;;;;;16.85;3.97;;;10.40;97.80;;;15.90;47.90;98505.69;5073914;28;20142;-78
2024/04/03 00:45:51;;;;;;;9.85;2.55;;;10.30;97.80;;;15.91;48.12;98506.50;5079552;28;20036;-78
2024/04/03 00:48:17;;;;;;;8.27;2.75;;;10.30;97.90;;;15.91;48.18;98509.13;5074322;28;20075;-78
2024/04/03 00:50:46;;;;;;;12.82;3.00;;;10.30;97.80;;;15.90;48.28;98503.06;5074319;28;20071;-79
2024/04/03 00:53:15;;;;;;;6.70;2.05;;;10.30;98.40;;;15.91;47.83;98509.97;5089295;28;20170;-79
2024/04/03 00:55:44;;;;;;;14.05;2.58;;;10.40;97.90;;;15.90;48.20;98496.94;5075030;28;20052;-80
2024/04/03 00:58:10;;;;;;;10.82;2.67;;;10.40;98.10;;;15.86;48.30;98495.59;5059123;28;20119;-80
2024/04/03 01:00:38;;;;;;;10.10;2.83;;;10.30;98.20;;;15.88;48.36;98493.63;5075689;28;20569;-80
2024/04/03 01:03:05;;;;;;;16.50;2.67;;;10.30;98.50;;;15.86;48.55;98495.59;5075730;28;20518;-79
2024/04/03 01:05:34;;;;;;;9.43;2.60;;;10.30;98.40;;;15.87;48.17;98495.41;5075908;28;20055;-80
2024/04/03 01:08:01;;;;;;;10.77;3.20;;;10.30;98.80;;;15.89;48.79;98492.63;5070940;28;20036;-78
2024/04/03 01:10:29;;;;;;;21.42;3.95;;;10.30;99.70;;;15.84;48.82;98485.19;5070460;28;20077;-78
2024/04/03 01:13:01;;;;;;;14.30;3.80;;;10.30;99.90;;;15.82;48.61;98491.59;5073255;28;20138;-78
2024/04/03 01:15:29;;;;;;;18.33;4.75;;;10.30;99.90;;;15.81;49.06;98488.13;5073743;28;20130;-78
2024/04/03 01:17:56;;;;;;;25.02;6.45;;;10.30;99.90;;;15.76;49.09;98487.78;5075825;28;20553;-78
2024/04/03 01:20:24;;;;;;;14.38;4.05;;;10.30;99.90;;;15.74;49.34;98486.28;5075806;28;20127;-78
2024/04/03 01:22:51;;;;;;;25.13;7.13;;;10.20;99.90;;;15.72;49.47;98478.53;5077818;28;20119;-78
2024/04/03 01:25:20;;;;;;;21.23;6.25;;;10.30;99.90;;;15.71;49.51;98474.22;5076849;28;20719;-78
2024/04/03 01:27:47;;;;;;;22.20;6.65;;;10.30;99.90;;;15.70;49.78;98467.31;5084894;28;20072;-78
2024/04/03 01:30:15;;;;;;;25.00;6.68;;;10.30;99.90;;;15.70;49.80;98459.38;5074478;28;20045;-78
2024/04/03 01:32:42;;;;;;;26.70;4.57;;;10.30;99.90;;;15.71;49.67;98470.78;5087997;28;20123;-79
2024/04/03 01:35:10;;;;;;;14.52;3.67;;;10.30;99.90;;;15.65;50.12;98460.81;5077297;28;20076;-78
2024/04/03 01:37:36;;;;;;;10.18;3.40;;;10.30;99.90;;;15.66;50.03;98460.69;5066270;28;20121;-78
2024/04/03 01:40:23;;;;;;;12.57;3.40;;;10.40;99.90;;;15.66;50.09;98459.84;5071748;28;20442;-78
2024/04/03 01:42:51;;;;;;;8.70;2.45;;;10.40;99.90;;;15.62;50.21;98455.84;5074664;28;20440;-77
2024/04/03 01:45:18;;;;;;;10.00;2.00;;;10.40;99.90;;;15.64;50.31;98451.28;5085755;28;20498;-78
2024/04/03 01:47:46;;;;;;;12.38;2.83;;;10.40;99.90;;;15.68;50.08;98450.78;5065961;28;20080;-79
2024/04/03 01:50:19;;;;;;;7.53;1.75;;;10.40;99.90;;;15.66;50.08;98450.13;5073427;28;20044;-79
2024/04/03 01:52:46;;;;;;;11.18;2.92;;;10.50;99.90;;;15.70;50.32;98451.47;5076817;28;20059;-79
2024/04/03 01:55:14;;;;;;;12.73;3.25;;;10.40;99.90;;;15.71;50.32;98447.03;5076917;28;20457;-79
2024/04/03 01:57:40;;;;;;;8.88;2.85;;;10.40;99.90;;;15.71;49.81;98442.56;5084508;28;20128;-78
2024/04/03 02:00:10;;;;;;;15.85;3.03;;;10.50;99.90;;;15.69;50.45;98439.25;5076752;28;20071;-79
2024/04/03 02:02:37;;;;;;;13.30;3.05;;;10.40;99.90;;;15.69;50.59;98436.63;5094659;28;20072;-79
2024/04/03 02:05:04;;;;;;;19.27;3.70;;;10.50;99.90;;;15.72;50.52;98438.94;5090433;28;20059;-79
2024/04/03 02:07:32;;;;;;;10.15;2.20;;;10.50;99.90;;;15.72;50.72;98425.75;5077025;28;20119;-78
2024/04/03 02:09:58;;;;;;;17.45;4.63;;;10.50;99.90;;;15.76;50.80;98428.91;5078657;28;20044;-79
2024/04/03 02:12:26;;;;;;;10.90;2.33;;;10.50;99.90;;;15.78;50.78;98432.19;5063364;28;20087;-78
2024/04/03 02:14:52;;;;;;;16.33;2.88;;;10.60;99.90;;;15.82;50.90;98431.75;5076551;28;20517;-79
2024/04/03 02:17:21;;;;;;;10.15;2.33;;;10.60;99.90;;;15.85;50.70;98427.94;5077165;28;20883;-79
2024/04/03 02:19:49;;;;;;;16.83;2.33;;;10.60;99.90;;;15.88;51.03;98425.81;5077305;28;20083;-80
2024/04/03 02:22:16;;;;;;;11.57;2.72;;;10.60;99.90;;;15.88;51.04;98431.09;5076946;28;20078;-79
2024/04/03 02:24:43;;;;;;;12.07;2.67;;;10.60;99.90;;;15.89;51.03;98426.66;5086281;28;20040;-80
2024/04/03 02:27:11;;;;;;;17.50;2.85;;;10.60;99.90;;;15.87;51.17;98434.72;5091002;28;20174;-78
2024/04/03 02:29:38;;;;;;;13.40;2.55;;;10.60;99.90;;;15.88;51.25;98425.81;5076794;28;20540;-79
2024/04/03 02:32:05;;;;;;;13.85;3.13;;;10.60;99.90;;;15.87;51.25;98421.53;5055540;28;20060;-79
2024/04/03 02:34:34;;;;;;;18.88;2.08;;;10.50;99.90;;;15.82;51.34;98423.00;5069166;28;20139;-78
2024/04/03 02:37:01;;;;;;;11.30;3.03;;;10.50;99.90;;;15.77;51.63;98425.28;5076172;28;20122;-79
2024/04/03 02:39:30;;;;;;;13.02;2.38;;;10.50;99.90;;;15.74;51.63;98423.75;5076321;28;20397;-78
2024/04/03 02:41:56;;;;;;;13.57;2.55;;;10.50;99.90;;;15.74;51.91;98413.22;5057583;28;20068;-80
2024/04/03 02:44:24;;;;;;;14.13;2.50;;;10.50;99.90;;;15.77;51.90;98418.19;5083012;28;20048;-80
2024/04/03 02:46:50;;;;;;;11.40;2.42;;;10.50;99.90;;;15.76;51.66;98424.44;5060261;28;20079;-79
2024/04/03 02:49:18;;;;;;;13.80;2.65;;;10.50;99.90;;;15.76;51.71;98427.09;5075666;28;20063;-80
2024/04/03 02:51:46;;;;;;;13.77;2.25;;;10.50;99.90;;;15.73;51.71;98424.78;5094029;28;20051;-80
2024/04/03 02:54:13;;;;;;;15.70;2.63;;;10.50;99.90;;;15.69;51.94;98426.06;5079931;28;20119;-80
2024/04/03 02:56:40;;;;;;;15.63;3.35;;;10.50;99.90;;;15.63;51.86;98434.59;5095326;28;20055;-80
2024/04/03 02:59:08;;;;;;;10.93;2.78;;;10.40;99.90;;;15.56;52.10;98438.84;5077746;28;20426;-80
2024/04/03 03:01:34;;;;;;;15.50;2.60;;;10.40;99.90;;;15.51;52.08;98434.03;5078181;28;20379;-80
2024/04/03 03:04:02;;;;;;;12.93;3.13;;;10.40;99.90;;;15.53;52.28;98437.34;5075422;28;20044;-80
2024/04/03 03:06:29;;;;;;;11.70;3.22;;;10.40;99.90;;;15.60;52.41;98428.81;5071472;28;20051;-80
2024/04/03 03:08:58;;;;;;;13.98;3.00;;;10.50;99.90;;;15.63;52.16;98424.06;5061660;28;20071;-79
2024/04/03 03:11:24;;;;;;;14.35;3.75;;;10.50;99.90;;;15.62;52.38;98422.38;5057150;28;20093;-79
2024/04/03 03:13:52;;;;;;;9.40;2.60;;;10.50;99.90;;;15.65;52.33;98427.34;5073885;28;20127;-79
2024/04/03 03:16:21;;;;;;;23.63;3.17;;;10.50;99.90;;;15.65;52.43;98423.88;5073558;28;20074;-79
2024/04/03 03:18:48;;;;;;;19.42;2.75;;;10.50;99.90;;;15.66;52.33;98436.09;5090650;28;20491;-78
2024/04/03 03:21:15;;;;;;;17.15;2.67;;;10.50;99.90;;;15.67;52.53;98430.69;5054809;28;20087;-78
2024/04/03 03:23:43;;;;;;;15.70;2.50;;;10.50;99.90;;;15.70;52.65;98443.56;5082953;28;20565;-79
2024/04/03 03:26:11;;;;;;;25.42;3.72;;;10.50;99.90;;;15.74;52.69;98438.78;5074277;28;20514;-79
2024/04/03 03:28:39;;;;;;;17.90;2.95;;;10.60;99.90;;;15.76;52.61;98427.09;5085342;28;20045;-78
2024/04/03 03:31:05;;;;;;;19.10;3.33;;;10.60;99.90;;;15.77;52.45;98428.75;5053691;28;20079;-79
2024/04/03 03:33:33;;;;;;;19.52;2.30;;;10.60;99.90;;;15.78;52.49;98430.38;5057085;28;20048;-79
2024/04/03 03:35:59;;;;;;;10.25;2.58;;;10.60;99.90;;;15.82;52.59;98434.38;5073320;28;20149;-79
2024/04/03 03:38:27;;;;;;;19.83;2.58;;;10.60;99.90;;;15.83;52.67;98428.13;5073139;28;20067;-78
2024/04/03 03:40:54;;;;;;;22.73;3.05;;;10.60;99.90;;;15.82;52.49;98437.00;5073064;28;20565;-78
2024/04/03 03:43:22;;;;;;;12.82;2.50;;;10.70;99.90;;;15.83;52.52;98438.69;5071538;28;20119;-78
2024/04/03 03:45:52;;;;;;;18.35;2.92;;;10.70;99.90;;;15.87;52.48;98440.00;5073364;28;20135;-78
2024/04/03 03:48:21;;;;;;;14.80;2.40;;;10.70;99.90;;;15.92;52.73;98442.19;5073195;28;20418;-79
2024/04/03 03:53:33;;;;;;;9.63;1.60;;;10.80;99.90;;;15.95;52.58;98440.06;5089686;28;20076;-78
2024/04/03 03:56:08;;;;;;;14.27;2.28;;;10.80;99.90;;;15.94;52.47;98445.47;5088575;28;20135;-77
2024/04/03 03:58:37;;;;;;;19.73;2.83;;;10.80;99.90;;;15.97;52.55;98440.72;5062840;28;20052;-78
2024/04/03 04:01:05;;;;;;;13.15;1.75;;;10.90;99.90;;;15.99;52.59;98454.59;5072955;28;20083;-78
2024/04/03 04:03:33;;;;;;;19.25;2.22;;;10.90;99.90;;;16.00;52.47;98452.78;5072443;28;20067;-79
2024/04/03 04:06:00;;;;;;;16.88;2.20;;;11.00;99.90;;;16.03;52.61;98445.38;5073101;28;20113;-78
2024/04/03 04:08:27;;;;;;;19.33;3.08;;;11.00;99.90;;;16.07;52.68;98445.88;5072532;28;20152;-78
2024/04/03 04:10:55;;;;;;;12.93;2.20;;;11.10;99.90;;;16.07;52.88;98446.69;5055183;28;20047;-78
2024/04/03 04:13:22;;;;;;;13.07;1.83;;;11.10;99.90;;;16.10;52.92;98440.28;5064123;28;20076;-77
2024/04/03 04:15:52;;;;;;;17.58;2.10;;;11.10;99.90;;;16.15;52.99;98443.28;5053928;28;20041;-79
2024/04/03 04:18:19;;;;;;;15.45;2.13;;;11.10;99.90;;;16.17;53.21;98445.78;5071588;28;20491;-78
2024/04/03 04:20:55;;;;;;;19.02;2.70;;;11.10;99.90;;;16.15;53.01;98439.81;5079485;28;20388;-79
2024/04/03 04:23:22;;;;;;;10.98;1.48;;;11.20;99.90;;;16.18;52.73;98442.13;5076468;28;20045;-77
2024/04/03 04:25:58;;;;;;;15.65;2.03;;;11.20;99.90;;;16.17;53.13;98441.28;5067917;28;20047;-78
2024/04/03 04:28:25;;;;;;;14.00;2.83;;;11.10;99.90;;;16.20;53.55;98440.97;5067821;28;20056;-79
2024/04/03 04:31:01;;;;;;;14.27;2.33;;;11.10;99.90;;;16.17;53.58;98435.22;5069347;28;20123;-79
2024/04/03 04:33:29;;;;;;;16.40;2.03;;;11.10;99.90;;;16.23;53.44;98440.69;5065669;28;20052;-78
2024/04/03 04:35:57;;;;;;;16.27;2.15;;;11.10;99.90;;;16.24;53.63;98444.13;5065075;28;20175;-78
2024/04/03 04:38:25;;;;;;;17.88;2.03;;;11.10;99.90;;;16.24;53.63;98444.13;5068691;28;20105;-79
2024/04/03 04:40:55;;;;;;;17.77;2.60;;;11.10;99.90;;;16.24;53.98;98446.75;5057798;28;20494;-78
2024/04/03 04:43:22;;;;;;;19.58;2.92;;;11.10;99.90;;;16.24;54.01;98444.13;5064416;28;20088;-79
2024/04/03 04:45:57;;;;;;;11.05;1.88;;;11.00;99.90;;;16.23;54.02;98447.78;5069023;28;20401;-79
2024/04/03 04:48:26;;;;;;;17.73;3.00;;;11.00;99.90;;;16.27;54.08;98449.13;5066523;28;20117;-80
2024/04/03 04:50:57;;;;;;;22.85;2.70;;;11.00;99.90;;;16.29;54.17;98444.47;5060774;28;20554;-78
2024/04/03 04:53:24;;;;;;;9.85;1.65;;;10.80;99.90;;;16.26;54.54;98447.44;5097155;28;20456;-80
2024/04/03 04:55:56;;;;;;;13.13;1.63;;;11.00;99.90;;;16.27;54.38;98454.41;5073167;28;20121;-80
2024/04/03 04:58:23;;;;;;;;;;;11.00;99.90;;;16.02;54.47;98456.91;5079308;28;20047;-79
2024/04/03 05:00:51;;;;;;;11.18;1.75;;;11.00;99.90;;;16.27;54.33;98462.31;5077454;28;20436;-79
2024/04/03 05:03:18;;;;;;;12.32;1.88;;;11.00;99.90;;;16.32;54.45;98465.28;5074569;28;20078;-79
2024/04/03 05:05:47;;;;;;;14.73;2.42;;;11.00;99.90;;;16.31;54.59;98477.66;5076978;28;20082;-78
2024/04/03 05:08:13;;;;;;;13.20;2.38;;;11.00;99.90;;;16.34;54.91;98471.22;5059209;28;20036;-78
2024/04/03 05:10:41;;;;;;;16.83;2.92;;;11.00;99.90;;;16.34;55.02;98473.88;5077085;28;20090;-78
2024/04/03 05:13:07;;;;;;;13.63;2.20;;;11.00;99.90;;;16.29;55.40;98470.91;5076311;28;20126;-79
2024/04/03 05:15:35;;;;;;;14.63;2.53;;;10.90;99.90;;;16.29;55.53;98468.25;5077494;28;20040;-78
2024/04/03 05:18:02;;;;;;;16.20;2.80;;;10.90;99.90;;;16.22;55.88;98467.22;5079771;28;20039;-79
2024/04/03 05:20:30;;;;;;;14.75;3.53;;;10.90;99.90;;;16.14;56.15;98469.81;5074146;28;20429;-79
2024/04/03 05:22:57;;;;;;;17.27;2.65;;;10.90;99.90;;;16.10;56.41;98470.13;5060997;28;20097;-78
2024/04/03 05:25:25;;;;;;;17.25;2.38;;;10.80;99.90;;;16.07;56.49;98467.81;5075820;28;20050;-79
2024/04/03 05:27:52;;;;;;;14.85;3.55;;;10.80;99.90;;;16.07;56.59;98462.53;5074452;28;20068;-79
2024/04/03 05:30:20;;;;;;;13.32;2.50;;;10.80;99.90;;;16.08;56.84;98466.84;5077366;28;20569;-79
2024/04/03 05:32:47;;;;;;;14.07;2.25;;;10.80;99.90;;;16.08;56.92;98472.13;5062034;28;20133;-80
2024/04/03 05:35:16;;;;;;;14.38;2.60;;;10.80;99.90;;;16.07;56.94;98466.97;5077446;28;20159;-79
2024/04/03 05:37:44;;;;;;;18.55;3.85;;;10.80;99.90;;;16.03;57.35;98470.94;5082467;28;20090;-79
2024/04/03 05:40:13;;;;;;;12.15;2.67;;;10.80;99.90;;;16.02;57.20;98469.28;5067300;28;20055;-79
2024/04/03 05:42:40;;;;;;;19.77;3.88;;;10.80;99.90;;;15.96;57.17;98476.03;5078506;28;20138;-79
2024/04/03 05:45:08;;;;;;;14.13;2.70;;;10.80;99.90;;;15.93;57.73;98472.88;5078456;28;20044;-79
2024/04/03 05:47:35;;;;;;;18.40;2.92;;;10.80;99.90;;;15.93;57.59;98481.63;5076962;28;20059;-79
2024/04/03 05:50:05;;;;;;;24.27;4.00;;;10.80;99.90;;;15.88;57.95;98483.91;5077770;28;20059;-78
2024/04/03 05:52:33;;;;;;;15.90;3.00;;;10.80;99.90;;;15.84;57.96;98489.66;5077272;28;20048;-78
2024/04/03 05:55:01;;;;;;;14.15;3.63;;;10.70;99.90;;;15.84;58.08;98489.66;5060877;28;20882;-78
2024/04/03 05:57:30;;;;;;;14.02;3.50;;;10.80;99.90;;;15.81;58.22;98487.31;5077085;28;20144;-78
2024/04/03 05:59:58;;;;;;;22.83;3.67;;;10.70;99.90;;;15.75;58.36;98483.47;5071524;28;20076;-78
2024/04/03 06:02:25;;;;;;;18.30;3.45;;;10.70;99.90;;;15.64;58.41;98489.03;5079438;28;20048;-79
2024/04/03 06:04:52;;;;;;;18.08;3.97;;;10.70;99.90;;;15.56;58.52;98486.31;5073517;28;20074;-78
2024/04/03 06:07:20;;;;;;;18.33;3.63;;;10.70;99.90;;;15.52;58.95;98488.44;5060780;28;20048;-79
2024/04/03 06:09:47;;;;;;;20.80;3.88;;;10.70;99.90;;;15.51;58.69;98483.34;5074853;28;20104;-79
2024/04/03 06:12:14;;;;;;;15.75;3.33;;;10.70;99.90;;;15.56;58.78;98488.97;5074945;28;20051;-78
2024/04/03 06:14:42;;;;;;;19.17;3.50;;;10.70;99.90;;;15.50;58.91;98492.22;5058216;28;20071;-78
2024/04/03 06:17:10;;;;;;;17.13;4.85;;;10.70;99.90;;;15.50;58.79;98494.88;5074814;28;20044;-78
2024/04/03 06:19:36;;;;;;;16.58;3.47;;;10.70;99.90;;;15.49;58.88;98493.19;5073837;28;20101;-78
2024/04/03 06:22:04;;;;;;;19.95;3.88;;;10.70;99.90;;;15.51;58.88;98501.81;5091630;28;20084;-77
2024/04/03 06:24:31;;;;;;;16.08;3.97;;;10.70;99.90;;;15.56;58.89;98499.53;5074465;28;20044;-78
2024/04/03 06:26:58;;;;;;;20.85;4.15;;;10.80;99.90;;;15.53;59.37;98502.47;5073453;28;20036;-78
2024/04/03 06:29:26;;;;;;;19.90;3.55;;;10.70;99.90;;;15.53;58.99;98498.03;5073858;28;20123;-78
2024/04/03 06:31:54;;;;;;;19.45;3.70;;;10.70;99.90;;;15.61;59.13;98504.34;5076853;28;20043;-78
2024/04/03 06:34:21;;;;;;;17.23;4.28;;;10.80;99.90;;;15.55;59.18;98497.84;5067790;28;20137;-77
2024/04/03 06:36:48;;;;;;;21.23;4.82;;;10.70;99.90;;;15.53;59.33;98499.81;5059416;28;21049;-78
2024/04/03 06:39:15;;;;;;;19.77;4.18;;;10.70;99.90;;;15.49;59.20;98493.19;5069056;28;20079;-78
2024/04/03 06:41:42;;;;;;;20.52;3.78;;;10.70;99.90;;;15.45;59.25;98483.91;5068993;28;20587;-76
2024/04/03 06:44:10;;;;;;;16.58;3.58;;;10.70;99.90;;;15.44;59.45;98496.25;5060101;28;20064;-77
2024/04/03 06:46:36;;;;;;;18.25;2.72;;;10.80;99.90;;;15.49;59.33;98494.03;5074320;28;20119;-78
2024/04/03 06:49:05;;;;;;;20.10;4.30;;;10.80;99.90;;;15.48;59.51;98502.06;5085314;28;20048;-77
2024/04/03 06:51:32;;;;;;;21.60;5.00;;;10.80;99.90;;;15.43;59.53;98493.78;5090444;28;20048;-78
2024/04/03 06:53:59;;;;;;;16.75;4.72;;;10.80;99.90;;;15.48;59.75;98491.53;5090419;28;20523;-78
2024/04/03 06:56:26;;;;;;;13.38;4.10;;;10.90;99.90;;;15.51;59.48;98492.06;5090743;28;20119;-77
2024/04/03 06:58:53;;;;;;;20.45;3.85;;;11.00;99.90;;;15.60;59.39;98489.50;5074902;28;20124;-78
2024/04/03 07:01:20;;;;;;;22.50;4.68;;;11.00;99.90;;;15.64;59.09;98502.22;5060949;28;20052;-77
2024/04/03 07:03:47;;;;;;;19.58;5.03;;;11.00;99.90;;;15.64;59.50;98499.59;5072457;28;20135;-78
2024/04/03 07:06:15;;;;;;;24.60;5.13;;;11.00;99.90;;;15.64;59.42;98506.66;5069539;28;20132;-78
2024/04/03 07:08:43;;;;;;;13.93;3.00;;;10.90;99.90;;;15.64;59.05;98502.22;5052091;28;20045;-78
2024/04/03 07:11:09;;;;;;;13.07;2.95;;;11.00;99.90;;;15.66;59.44;98508.16;5069070;28;20071;-78
2024/04/03 07:13:37;;;;;;;15.88;2.80;;;10.90;99.90;;;15.69;59.49;98510.50;5069054;28;20072;-77
2024/04/03 07:16:04;;;;;;;14.95;3.35;;;11.00;99.90;;;15.76;59.19;98505.44;5068578;28;20178;-77
2024/04/03 07:18:32;;;;;;;22.08;3.50;;;11.00;99.90;;;15.84;59.02;98506.28;5069521;28;20099;-78
2024/04/03 07:20:59;;;;;;;14.95;2.97;;;11.10;99.90;;;15.90;59.02;98513.63;5070151;28;20491;-78
2024/04/03 07:23:30;;;;;;;20.00;3.45;;;11.20;99.90;;;16.01;58.93;98512.50;5053460;28;20090;-78
2024/04/03 07:25:57;;;;;;;17.65;3.67;;;11.20;99.90;;;16.09;58.85;98512.56;5070428;28;20080;-78
2024/04/03 07:28:28;;;;;;;12.82;3.58;;;11.30;99.90;;;16.16;58.93;98510.94;5069775;28;20082;-77
2024/04/03 07:30:54;;;;;;;19.30;4.18;;;11.30;99.90;;;16.22;58.91;98514.75;5068724;28;20136;-78
2024/04/03 07:33:23;;;;;;;11.32;3.53;;;11.40;99.90;;;16.27;58.89;98520.41;5070482;28;20068;-78
2024/04/03 07:35:49;;;;;;;16.85;3.92;;;11.40;99.90;;;16.32;58.91;98516.31;5084541;28;20043;-78
2024/04/03 07:38:19;;;;;;;17.15;3.40;;;11.40;99.90;;;16.33;58.84;98522.41;5087090;28;20477;-78
2024/04/03 07:40:50;;;;;;;14.77;2.70;;;11.40;99.90;;;16.32;59.06;98532.16;5074030;28;20477;-78
2024/04/03 07:43:18;;;;;;;13.75;3.35;;;11.40;99.90;;;16.30;58.82;98534.09;5081330;28;20118;-77
2024/04/03 07:45:44;;;;;;;18.98;3.25;;;11.40;99.90;;;16.32;58.88;98534.78;5088516;28;20458;-78
2024/04/03 07:48:12;;;;;;;11.70;2.60;;;11.40;99.90;;;16.29;58.90;98540.41;5067556;28;20052;-79
2024/04/03 07:50:39;;;;;;;15.57;3.60;;;11.40;99.90;;;16.35;58.84;98537.13;5051960;28;20040;-78
2024/04/03 07:53:07;;;;;;;18.23;3.88;;;11.50;99.90;;;16.35;58.87;98541.56;5052419;28;20135;-79
2024/04/03 07:55:35;;;;;;;18.60;4.13;;;11.50;99.90;;;16.36;58.86;98541.44;5070015;28;20451;-78
2024/04/03 07:58:04;;;;;;;9.07;2.22;;;11.50;99.90;;;16.37;58.53;98542.22;5069579;28;20052;-78
2024/04/03 08:00:31;;;;;;;15.63;3.03;;;11.60;99.90;;;16.37;58.67;98555.44;5073026;28;20373;-78
2024/04/03 08:02:59;;;;;;;13.30;2.40;;;11.70;99.90;;;16.46;58.41;98549.22;5072095;28;20055;-79
2024/04/03 08:05:26;;;;;;;11.45;3.05;;;11.80;99.90;;;16.48;58.43;98555.16;5070434;28;20055;-77
2024/04/03 08:07:53;;;;;;;15.68;3.22;;;11.90;99.90;;;16.58;58.34;98553.25;5070973;28;20052;-78
2024/04/03 08:10:20;;;;;;;15.70;3.47;;;11.90;99.90;;;16.59;58.27;98554.94;5070804;28;20048;-78
2024/04/03 08:12:47;;;;;;;20.00;4.72;;;11.90;99.90;;;16.58;58.48;98561.19;5081516;28;20067;-79
2024/04/03 08:15:15;;;;;;;17.17;4.30;;;11.90;99.90;;;16.58;58.39;98559.38;5070809;28;20079;-78
2024/04/03 08:17:43;;;;;;;19.25;4.85;;;11.80;99.90;;;16.48;58.58;98555.16;5071174;28;20040;-79
2024/04/03 08:20:09;;;;;;;17.05;5.05;;;11.70;99.90;;;16.41;58.91;98565.53;5072391;28;20080;-78
2024/04/03 08:22:37;;;;;;;15.85;3.97;;;11.70;99.90;;;16.40;59.07;98557.78;5089200;28;20080;-79
2024/04/03 08:25:04;;;;;;;19.13;4.53;;;11.70;99.90;;;16.41;59.05;98559.44;5068909;28;20041;-78
2024/04/03 08:27:33;;;;;;;9.43;2.85;;;11.70;99.90;;;16.43;59.08;98562.75;5052713;28;20398;-78
2024/04/03 08:30:01;;;;;;;12.73;3.30;;;11.70;99.90;;;16.44;59.25;98553.81;5051852;28;20087;-79
2024/04/03 08:32:30;;;;;;;14.10;4.05;;;11.80;99.90;;;16.41;59.75;98557.63;5064082;28;20093;-77
2024/04/03 08:34:57;;;;;;;13.40;3.80;;;11.80;99.90;;;16.42;59.62;98558.44;5051878;28;20098;-79
2024/04/03 08:37:24;;;;;;;14.27;3.53;;;11.90;99.90;;;16.43;59.59;98546.91;5052846;28;20047;-78
2024/04/03 08:39:51;;;;;;;13.02;3.92;;;11.90;99.90;;;16.43;59.56;98547.72;5072549;28;20449;-79
2024/04/03 08:42:19;;;;;;;10.77;4.15;;;11.90;99.90;;;16.41;59.88;98552.34;5070521;28;20059;-79
2024/04/03 08:44:46;;;;;;;19.77;4.28;;;11.90;99.90;;;16.43;59.79;98560.91;5045815;28;20053;-78
2024/04/03 08:47:15;;;;;;;18.73;4.22;;;12.10;99.90;;;16.47;60.08;98556.97;5068910;28;20460;-79
2024/04/03 08:49:43;;;;;;;17.20;7.20;;;12.20;99.90;;;16.57;59.89;98554.25;5072125;28;20043;-79
2024/04/03 08:52:12;;;;;;;29.73;18.25;;;12.30;99.90;;;16.59;59.90;98560.22;5072122;28;20044;-80
2024/04/03 08:54:40;;;;;;;22.65;8.43;;;12.00;99.90;;;16.58;60.05;98566.47;5072010;28;20040;-80
2024/04/03 08:57:08;;;;;;;17.73;4.82;;;12.20;99.90;;;16.59;60.06;98562.84;5072732;28;20270;-79
2024/04/03 08:59:38;;;;;;;14.27;5.40;;;12.20;99.90;;;16.68;59.93;98567.19;5071877;28;20117;-79
2024/04/03 09:02:06;;;;;;;17.50;6.30;;;12.40;99.90;;;16.80;59.79;98571.19;5054965;28;20544;-78
2024/04/03 09:04:36;;;;;;;12.68;5.05;;;12.50;99.90;;;16.94;59.72;98573.22;5071810;28;20048;-79
2024/04/03 09:07:08;;;;;;;13.45;5.25;;;12.60;99.90;;;17.09;59.51;98568.94;5071674;28;20079;-77
2024/04/03 09:09:36;;;;;;;20.27;4.75;;;12.80;99.90;;;17.13;59.05;98572.94;5071895;28;20100;-78
2024/04/03 09:12:05;;;;;;;12.82;4.63;;;12.80;99.90;;;17.14;58.97;98573.75;5071812;28;20080;-78
2024/04/03 09:14:33;;;;;;;17.33;4.50;;;12.70;99.90;;;17.20;58.87;98575.75;5071790;28;20060;-79
2024/04/03 09:17:03;;;;;;;12.00;3.22;;;12.70;99.90;;;17.22;58.40;98575.59;5071528;28;20048;-77
2024/04/03 09:19:32;;;;;;;16.40;3.20;;;12.70;99.90;;;17.19;58.18;98573.28;5071272;28;20052;-78
2024/04/03 09:22:01;;;;;;;11.80;3.03;;;12.70;99.90;;;17.09;58.54;98563.66;5070967;28;20090;-80
2024/04/03 09:24:33;;;;;;;12.70;3.53;;;12.70;99.90;;;17.04;58.58;98565.97;5071282;28;20458;-78
2024/04/03 09:27:04;;;;;;;16.25;3.40;;;12.70;99.90;;;17.04;58.30;98562.50;5068744;28;20044;-79
2024/04/03 09:29:30;;;;;;;11.45;2.90;;;12.70;99.90;;;17.00;58.31;98567.28;5064336;28;20084;-78
2024/04/03 09:32:03;;;;;;;9.27;3.28;;;12.60;99.90;;;16.98;58.41;98574.56;5068187;28;20083;-79
2024/04/03 09:34:31;;;;;;;12.68;4.22;;;12.70;99.90;;;17.05;58.69;98572.94;5066777;28;20063;-79
2024/04/03 09:37:01;;;;;;;12.13;3.47;;;12.70;99.90;;;17.03;58.24;98569.59;5085372;28;20056;-79
2024/04/03 09:39:28;;;;;;;13.60;4.20;;;12.60;99.90;;;16.91;58.74;98568.25;5078942;28;20134;-78
2024/04/03 09:42:04;;;;;;;14.32;3.42;;;12.50;99.90;;;16.88;58.47;98573.88;5071791;28;20082;-78
2024/04/03 09:44:37;;;;;;;12.20;3.25;;;12.50;99.90;;;16.94;58.48;98577.69;5088726;28;20497;-79
2024/04/03 09:47:11;;;;;;;10.98;4.75;;;12.60;99.90;;;16.95;58.86;98574.88;5062247;28;20032;-78
2024/04/03 09:49:41;;;;;;;12.57;4.38;;;12.60;99.90;;;17.02;58.30;98572.41;5055980;28;20048;-78
2024/04/03 09:52:10;;;;;;;10.35;2.90;;;12.70;99.90;;;17.13;58.39;98572.94;5065452;28;20080;-78
2024/04/03 09:54:38;;;;;;;11.90;3.50;;;12.80;99.90;;;17.19;57.92;98566.16;5071730;28;20102;-79
2024/04/03 09:57:07;;;;;;;17.67;3.72;;;12.80;99.90;;;17.19;57.92;98573.28;5071947;28;20618;-79
2024/04/03 09:59:36;;;;;;;19.98;3.85;;;12.80;99.90;;;17.15;57.81;98566.66;5072162;28;20040;-79
2024/04/03 10:02:04;;;;;;;10.77;3.72;;;12.80;99.90;;;17.09;57.99;98563.66;5067424;28;20048;-79
2024/04/03 10:04:36;;;;;;;11.57;4.75;;;12.80;99.90;;;17.04;58.08;98570.44;5071061;28;20074;-79
2024/04/03 10:07:03;;;;;;;14.38;3.42;;;12.70;99.90;;;17.01;57.90;98573.41;5072160;28;20071;-79
2024/04/03 10:09:31;;;;;;;9.20;3.03;;;12.80;99.90;;;17.01;57.96;98579.53;5071929;28;20565;-79
2024/04/03 10:12:00;;;;;;;10.68;3.05;;;12.80;99.90;;;17.00;57.86;98575.22;5071387;28;20466;-79
2024/04/03 10:14:29;;;;;;;10.23;3.15;;;12.80;99.90;;;17.00;57.72;98577.84;5056904;28;20049;-78
2024/04/03 10:16:57;;;;;;;15.18;4.97;;;12.80;99.90;;;17.05;57.82;98575.56;5059523;28;20762;-79
2024/04/03 10:19:31;;;;;;;15.52;5.43;;;12.90;99.90;;;17.10;57.46;98573.25;5070844;28;20072;-79